Time;durP1;ratioP1;P1;durP2;ratioP2;P2;SDS_P1;SDS_P2;PMS_P1;PMS_P2;Temp;Humidity;BMP_temperature;BMP_pressure;BME280_temperature;BME280_humidity;BME280_pressure;Samples;Min_cycle;Max_cycle;Signal;HPM_P1;HPM_P2
2022/02/10 00:06:06;;;;;;;10.45;1.80;;;27.50;99.90;;;;;;5019578;28;20105;-66
2022/02/10 00:25:42;;;;;;;3.92;1.00;;;28.20;99.90;;;;;;4996470;28;20544;-66
2022/02/10 00:36:11;;;;;;;4.70;0.95;;;28.80;99.90;;;;;;5022090;28;20041;-66
2022/02/10 00:38:51;;;;;;;4.50;0.80;;;29.00;99.90;;;;;;5016504;28;20029;-66
2022/02/10 00:41:18;;;;;;;1.80;0.82;;;29.00;99.90;;;;;;5012192;28;20605;-66
2022/02/10 00:43:46;;;;;;;6.57;1.33;;;29.00;99.90;;;;;;5019631;28;20017;-66
2022/02/10 00:46:13;;;;;;;6.20;0.90;;;29.10;99.90;;;;;;5026474;28;20029;-66
2022/02/10 00:48:40;;;;;;;4.80;1.10;;;29.20;99.90;;;;;;5012389;28;20116;-68
2022/02/10 00:51:09;;;;;;;5.50;1.10;;;29.40;99.90;;;;;;5016269;28;20501;-67
2022/02/10 00:53:40;;;;;;;7.05;1.33;;;29.40;99.90;;;;;;5010320;28;20057;-67
2022/02/10 00:56:09;;;;;;;4.82;1.20;;;29.40;99.90;;;;;;5002555;28;20033;-67
2022/02/10 00:58:40;;;;;;;6.68;1.20;;;29.70;99.90;;;;;;5018506;28;20040;-66
2022/02/10 01:31:51;;;;;;;8.27;1.55;;;30.30;99.90;;;;;;5012675;28;20041;-66
2022/02/10 01:34:22;;;;;;;3.75;1.13;;;30.40;99.90;;;;;;5015333;28;20033;-66
2022/02/10 01:36:50;;;;;;;4.65;1.30;;;30.30;99.90;;;;;;5020546;28;20073;-66
2022/02/10 01:39:23;;;;;;;7.13;1.40;;;30.60;99.90;;;;;;5009874;28;20097;-66
2022/02/10 02:04:25;;;;;;;5.57;1.20;;;31.10;99.90;;;;;;5013703;28;20064;-66
2022/02/10 02:06:55;;;;;;;7.22;1.50;;;31.20;99.90;;;;;;5014219;28;20022;-67
2022/02/10 02:09:23;;;;;;;8.30;1.83;;;31.30;99.90;;;;;;5011206;28;20053;-67
2022/02/10 02:11:55;;;;;;;5.57;1.45;;;31.40;99.90;;;;;;5012123;28;20475;-67
2022/02/10 02:14:27;;;;;;;3.05;1.00;;;31.30;99.90;;;;;;5011336;28;20032;-67
2022/02/10 02:17:00;;;;;;;6.35;1.27;;;31.50;99.90;;;;;;5014332;28;20072;-67
2022/02/10 02:19:27;;;;;;;;;;;31.30;99.90;;;;;;5002500;28;20034;-67
2022/02/10 02:22:02;;;;;;;9.45;1.40;;;31.30;99.90;;;;;;5011599;28;19909;-66
2022/02/10 02:24:29;;;;;;;5.05;1.02;;;31.40;99.90;;;;;;5009301;28;20057;-67
2022/02/10 02:27:03;;;;;;;6.03;1.50;;;31.50;99.90;;;;;;5017615;28;20026;-66
2022/02/10 02:29:45;;;;;;;5.10;1.33;;;31.70;99.90;;;;;;5010482;28;20022;-66
2022/02/10 02:32:20;;;;;;;4.43;1.30;;;31.70;99.90;;;;;;5012573;28;20077;-67
2022/02/10 03:05:36;;;;;;;9.02;1.77;;;31.00;99.90;;;;;;5000660;28;20046;-66
2022/02/10 03:08:12;;;;;;;5.20;1.20;;;30.70;99.90;;;;;;5028636;28;20562;-67
2022/02/10 03:10:59;;;;;;;8.73;1.25;;;30.70;99.90;;;;;;5016289;28;20022;-67
2022/02/10 03:13:34;;;;;;;10.02;1.52;;;30.60;99.90;;;;;;5014890;28;20486;-67
2022/02/10 03:16:25;;;;;;;6.10;1.15;;;30.70;99.90;;;;;;5009106;28;20025;-67
2022/02/10 03:19:04;;;;;;;7.85;1.75;;;30.70;99.90;;;;;;5010426;28;20050;-67
2022/02/10 04:02:52;;;;;;;3.92;0.73;;;29.60;99.90;;;;;;5026981;28;20051;-67
2022/02/10 04:08:02;;;;;;;5.03;1.02;;;29.60;99.90;;;;;;5021694;28;20109;-65
2022/02/10 04:10:59;;;;;;;6.22;1.40;;;29.70;99.90;;;;;;5024621;28;20092;-64
2022/02/10 04:16:19;;;;;;;2.83;1.00;;;29.60;99.90;;;;;;5028348;28;20086;-65
2022/02/10 04:26:51;;;;;;;4.05;1.10;;;29.10;99.90;;;;;;5015882;28;20034;-62
2022/02/10 04:32:19;;;;;;;2.42;0.90;;;29.20;99.90;;;;;;5014350;28;20430;-63
2022/02/10 04:38:02;;;;;;;4.80;1.10;;;29.40;99.90;;;;;;4997568;28;20028;-63
2022/02/10 04:43:24;;;;;;;1.67;0.88;;;29.20;99.90;;;;;;5014473;28;20034;-64
2022/02/10 04:57:16;;;;;;;6.05;1.00;;;28.50;99.90;;;;;;4998460;28;20033;-64
2022/02/10 04:59:58;;;;;;;5.30;1.10;;;28.30;99.90;;;;;;5003760;28;20045;-64
2022/02/10 05:03:55;;;;;;;4.80;1.00;;;28.20;99.90;;;;;;5003322;28;20038;-63
2022/02/10 05:19:21;;;;;;;5.85;1.08;;;28.30;99.90;;;;;;5016791;28;20038;-64
2022/02/10 05:24:44;;;;;;;2.80;0.75;;;28.10;99.90;;;;;;5021294;28;20456;-64
2022/02/10 05:35:53;;;;;;;5.43;1.17;;;26.60;99.90;;;;;;5033759;28;20123;-63
2022/02/10 05:38:28;;;;;;;7.18;1.70;;;25.70;99.90;;;;;;5030899;28;20084;-63
2022/02/10 05:49:04;;;;;;;12.00;3.00;;;25.20;99.90;;;;;;5042830;28;20044;-63
2022/02/10 06:45:13;;;;;;;4.68;1.20;;;25.80;99.90;;;;;;5014808;28;20553;-65
2022/02/10 06:49:12;;;;;;;3.80;0.82;;;26.10;99.90;;;;;;5013938;28;20041;-65
2022/02/10 06:51:53;;;;;;;2.50;0.73;;;26.10;99.90;;;;;;5012785;28;20034;-64
2022/02/10 06:54:42;;;;;;;3.17;0.90;;;26.30;99.90;;;;;;5006821;28;20045;-64
2022/02/10 07:03:14;;;;;;;3.65;0.73;;;26.50;99.90;;;;;;5017687;28;20032;-64
2022/02/10 07:10:51;;;;;;;3.75;0.80;;;26.50;99.90;;;;;;5020709;28;20029;-63
2022/02/10 07:16:49;;;;;;;5.13;1.67;;;26.40;99.90;;;;;;5021058;28;20044;-63
2022/02/10 07:45:30;;;;;;;4.97;0.73;;;26.70;99.90;;;;;;5013504;28;20096;-64
2022/02/10 08:29:41;;;;;;;8.27;1.45;;;26.10;99.90;;;;;;5013727;28;20128;-63
2022/02/10 08:51:30;;;;;;;5.93;1.20;;;25.40;99.90;;;;;;5018342;28;20041;-65
2022/02/10 08:56:11;;;;;;;14.05;1.98;;;25.40;99.90;;;;;;5014262;28;20053;-65
2022/02/10 09:01:43;;;;;;;9.68;2.28;;;25.30;99.90;;;;;;5021656;28;20080;-65
2022/02/10 09:04:31;;;;;;;8.02;2.38;;;25.40;99.90;;;;;;5008206;28;20034;-65
2022/02/10 09:15:23;;;;;;;7.07;1.75;;;25.60;99.90;;;;;;5014106;28;20118;-65
2022/02/10 10:04:07;;;;;;;9.32;2.20;;;25.30;99.90;;;;;;5006770;28;20098;-65
2022/02/10 10:07:07;;;;;;;13.75;2.90;;;25.20;99.90;;;;;;5008109;28;20033;-65
2022/02/10 10:09:58;;;;;;;13.65;2.70;;;25.20;99.90;;;;;;5010995;28;20379;-64
2022/02/10 10:13:03;;;;;;;25.67;3.17;;;25.10;99.90;;;;;;5011919;28;20038;-64
2022/02/10 10:48:36;;;;;;;29.98;5.03;;;23.50;99.90;;;;;;4966898;28;20091;-65
2022/02/10 10:50:27;;;;;;;25.08;5.80;;;23.50;99.90;;;;;;4966577;28;20031;-65
2022/02/10 10:55:39;;;;;;;22.77;5.60;;;23.50;99.90;;;;;;5001489;28;20401;-65
2022/02/10 10:58:14;;;;;;;18.20;4.47;;;23.60;99.90;;;;;;5007763;28;20029;-65
2022/02/10 11:03:44;;;;;;;22.30;5.05;;;23.40;99.90;;;;;;4997009;28;20509;-65
2022/02/10 11:41:31;;;;;;;19.10;4.90;;;22.30;99.90;;;;;;5008979;28;20048;-66
2022/02/10 14:09:25;;;;;;;15.00;2.72;;;21.80;99.90;;;;;;5016602;28;20067;-65
2022/02/10 14:12:37;;;;;;;12.40;2.78;;;21.80;99.90;;;;;;4997816;28;20120;-65
2022/02/10 14:17:10;;;;;;;13.82;3.38;;;21.60;99.90;;;;;;5023042;28;20119;-64
2022/02/10 14:27:21;;;;;;;14.75;2.50;;;21.30;99.90;;;;;;4993140;28;20049;-65
2022/02/10 14:29:48;;;;;;;6.78;2.05;;;21.10;99.90;;;;;;4996907;28;20034;-64
2022/02/10 14:32:17;;;;;;;10.25;2.47;;;21.10;99.90;;;;;;4996910;28;20042;-64
2022/02/10 14:34:50;;;;;;;13.63;3.40;;;21.20;99.90;;;;;;5006656;28;20030;-65
2022/02/10 15:29:10;;;;;;;9.10;2.35;;;21.40;99.90;;;;;;5013050;28;20033;-65
2022/02/10 16:13:41;;;;;;;16.63;3.90;;;21.20;99.90;;;;;;5004457;28;20513;-65
2022/02/10 16:18:22;;;;;;;12.38;3.25;;;21.00;99.90;;;;;;5013703;28;20054;-64
2022/02/10 16:20:58;;;;;;;12.60;2.30;;;21.00;99.90;;;;;;5013740;28;20040;-65
2022/02/10 16:23:29;;;;;;;14.95;3.20;;;21.10;99.90;;;;;;5010504;28;20033;-65
2022/02/10 16:26:17;;;;;;;12.32;3.08;;;21.00;99.90;;;;;;5008118;28;20109;-65
2022/02/10 16:28:45;;;;;;;15.13;3.85;;;21.00;99.90;;;;;;5014597;28;20112;-65
2022/02/10 16:31:15;;;;;;;15.57;3.60;;;20.90;99.90;;;;;;5005946;28;20108;-65
2022/02/10 16:33:43;;;;;;;12.55;4.32;;;20.80;99.90;;;;;;5011179;28;20038;-64
2022/02/10 16:36:22;;;;;;;17.15;3.70;;;20.70;99.90;;;;;;5010328;28;20030;-65
2022/02/10 16:38:50;;;;;;;7.68;3.08;;;20.70;99.90;;;;;;5010148;28;20014;-64
2022/02/10 16:41:17;;;;;;;10.30;3.35;;;20.60;99.90;;;;;;5011198;28;20026;-65
2022/02/10 16:43:45;;;;;;;9.90;3.70;;;20.60;99.90;;;;;;5010900;28;20049;-65
2022/02/10 16:46:12;;;;;;;9.90;3.92;;;20.50;99.90;;;;;;5012151;28;20027;-65
2022/02/10 16:48:40;;;;;;;16.05;4.05;;;20.50;99.90;;;;;;5008225;28;20037;-65
2022/02/10 16:51:09;;;;;;;7.80;3.17;;;20.50;99.90;;;;;;5011895;28;20042;-65
2022/02/10 16:53:44;;;;;;;14.80;3.33;;;20.50;99.90;;;;;;5008466;28;20029;-65
2022/02/10 16:56:18;;;;;;;11.23;2.80;;;20.50;99.90;;;;;;5011015;28;20081;-65
2022/02/10 16:59:34;;;;;;;4.68;2.38;;;20.50;99.90;;;;;;5012613;28;20601;-65
2022/02/10 17:02:02;;;;;;;13.40;3.70;;;20.50;99.90;;;;;;5009465;28;20033;-65
2022/02/10 17:30:19;;;;;;;11.65;1.98;;;20.40;99.90;;;;;;4962272;28;20041;-65
2022/02/10 17:45:54;;;;;;;14.63;2.20;;;20.50;99.90;;;;;;5019904;28;20051;-65
2022/02/10 17:53:54;;;;;;;8.50;2.35;;;20.50;99.90;;;;;;5008972;28;20512;-65
2022/02/10 17:56:23;;;;;;;11.60;3.78;;;20.50;99.90;;;;;;5006488;28;20024;-65
2022/02/10 17:58:51;;;;;;;10.90;2.50;;;20.60;99.90;;;;;;5009304;28;20033;-65
2022/02/10 18:01:19;;;;;;;20.67;3.05;;;20.60;99.90;;;;;;5012143;28;20477;-65
2022/02/10 18:03:47;;;;;;;11.75;2.28;;;20.60;99.90;;;;;;5007973;28;20506;-65
2022/02/10 18:06:21;;;;;;;12.63;2.90;;;20.60;99.90;;;;;;5009357;28;20040;-65
2022/02/10 18:09:10;;;;;;;10.90;2.65;;;20.60;99.90;;;;;;5004965;28;20513;-65
2022/02/10 18:17:11;;;;;;;16.98;3.25;;;20.60;99.90;;;;;;5011059;28;20108;-65
2022/02/10 18:20:05;;;;;;;11.98;2.47;;;20.70;99.90;;;;;;5008870;28;20409;-64
2022/02/10 18:27:36;;;;;;;14.27;2.92;;;20.70;99.90;;;;;;5003287;28;20466;-65
2022/02/10 19:08:46;;;;;;;18.05;3.35;;;20.50;99.90;;;;;;5010198;28;20034;-65
2022/02/10 19:11:15;;;;;;;15.80;2.90;;;20.50;99.90;;;;;;5010954;28;20033;-65
2022/02/10 19:13:43;;;;;;;11.23;2.30;;;20.50;99.90;;;;;;5008617;28;20108;-65
2022/02/10 19:16:11;;;;;;;10.93;2.60;;;20.50;99.90;;;;;;5010377;28;20400;-65
2022/02/10 19:18:38;;;;;;;11.80;3.13;;;20.50;99.90;;;;;;5014583;28;20030;-65
2022/02/10 19:21:05;;;;;;;12.25;2.92;;;20.50;99.90;;;;;;5016994;28;20370;-65
2022/02/10 19:23:32;;;;;;;13.50;2.55;;;20.50;99.90;;;;;;5007438;28;20069;-65
2022/02/10 19:26:00;;;;;;;12.60;2.58;;;20.50;99.90;;;;;;5005355;28;20424;-65
2022/02/10 19:28:27;;;;;;;16.83;3.33;;;20.50;99.90;;;;;;5016522;28;20413;-65
2022/02/10 19:30:55;;;;;;;14.20;2.78;;;20.50;99.90;;;;;;5014016;28;20018;-64
2022/02/10 19:33:22;;;;;;;19.38;3.58;;;20.50;99.90;;;;;;5013309;28;20073;-65
2022/02/10 19:35:52;;;;;;;13.23;3.30;;;20.50;99.90;;;;;;5009241;28;20632;-64
2022/02/10 19:38:22;;;;;;;19.58;4.18;;;20.50;99.90;;;;;;5012046;28;20050;-65
2022/02/10 19:40:52;;;;;;;13.18;3.63;;;20.50;99.90;;;;;;5013190;28;20037;-65
2022/02/10 19:43:21;;;;;;;14.55;2.92;;;20.50;99.90;;;;;;5015853;28;20025;-65
2022/02/10 19:45:50;;;;;;;14.35;3.13;;;20.50;99.90;;;;;;5018851;28;20014;-65
2022/02/10 19:48:19;;;;;;;13.38;2.35;;;20.50;99.90;;;;;;5023910;28;20517;-65
2022/02/10 19:50:46;;;;;;;16.65;3.42;;;20.60;99.90;;;;;;5024705;28;20156;-65
2022/02/10 19:53:14;;;;;;;21.90;3.22;;;20.60;99.90;;;;;;5008912;28;20037;-65
2022/02/10 19:55:45;;;;;;;9.75;2.65;;;20.60;99.90;;;;;;5013911;28;20037;-65
2022/02/10 19:58:19;;;;;;;12.20;2.45;;;20.60;99.90;;;;;;5006027;28;20038;-65
2022/02/10 20:00:47;;;;;;;18.30;3.20;;;20.60;99.90;;;;;;5006240;28;20022;-64
2022/02/10 20:03:20;;;;;;;13.05;2.70;;;20.60;99.90;;;;;;5012274;28;20275;-64
2022/02/10 20:05:50;;;;;;;16.08;3.20;;;20.60;99.90;;;;;;5020058;28;20025;-64
2022/02/10 20:08:23;;;;;;;18.85;2.92;;;20.60;99.90;;;;;;5015589;28;20088;-64
2022/02/10 20:10:54;;;;;;;12.80;2.80;;;20.70;99.90;;;;;;5013977;28;20116;-64
2022/02/10 20:13:28;;;;;;;22.02;3.15;;;20.70;99.90;;;;;;5014384;28;20037;-64
2022/02/10 20:15:58;;;;;;;15.05;3.28;;;20.70;99.90;;;;;;5010841;28;20022;-64
2022/02/10 20:18:25;;;;;;;17.85;3.92;;;20.80;99.90;;;;;;5013588;28;20056;-64
2022/02/10 20:20:56;;;;;;;16.90;3.78;;;20.80;99.90;;;;;;5015120;28;20432;-64
2022/02/10 20:23:25;;;;;;;16.23;3.03;;;20.90;99.90;;;;;;5019375;28;20029;-64
2022/02/10 20:25:52;;;;;;;13.77;2.75;;;20.90;99.90;;;;;;5016123;28;20029;-64
2022/02/10 20:28:22;;;;;;;18.27;2.97;;;21.00;99.90;;;;;;5013012;28;20022;-64
2022/02/10 20:30:50;;;;;;;13.25;2.78;;;21.00;99.90;;;;;;5014395;28;20535;-64
2022/02/10 20:33:21;;;;;;;14.27;3.00;;;21.10;99.90;;;;;;5021091;28;20033;-64
2022/02/10 20:35:53;;;;;;;18.30;2.63;;;21.20;99.90;;;;;;5008153;28;20113;-66
2022/02/10 20:38:20;;;;;;;25.77;3.60;;;21.20;99.90;;;;;;5011650;28;20107;-65
2022/02/10 20:40:56;;;;;;;15.35;3.97;;;21.30;99.90;;;;;;5009474;28;20266;-65
2022/02/10 20:43:24;;;;;;;17.65;3.80;;;21.30;99.90;;;;;;5029457;28;20033;-65
2022/02/10 20:46:06;;;;;;;17.88;3.03;;;21.40;99.90;;;;;;5021682;28;20105;-66
2022/02/10 20:48:36;;;;;;;21.23;4.45;;;21.50;99.90;;;;;;5019343;28;20036;-65
2022/02/10 20:51:07;;;;;;;17.33;3.63;;;21.60;99.90;;;;;;5033958;28;20616;-66
2022/02/10 20:53:36;;;;;;;24.17;4.10;;;21.60;99.90;;;;;;5023224;28;20112;-65
2022/02/10 20:56:06;;;;;;;13.25;2.53;;;21.70;99.90;;;;;;5013645;28;20030;-66
2022/02/10 20:58:34;;;;;;;19.00;4.47;;;21.80;99.90;;;;;;5014545;28;20034;-66
2022/02/10 21:01:03;;;;;;;16.02;2.95;;;21.80;99.90;;;;;;5014552;28;20025;-65
2022/02/10 21:03:33;;;;;;;12.95;2.58;;;21.90;99.90;;;;;;5015023;28;20030;-66
2022/02/10 21:08:59;;;;;;;13.00;2.53;;;22.10;99.90;;;;;;5004677;28;20038;-66
2022/02/10 21:11:28;;;;;;;10.68;2.25;;;22.20;99.90;;;;;;5016458;28;20026;-65
2022/02/10 21:13:57;;;;;;;12.93;2.72;;;22.20;99.90;;;;;;5018125;28;20036;-66
2022/02/10 21:16:26;;;;;;;14.82;3.13;;;22.20;99.90;;;;;;5007759;28;20033;-66
2022/02/10 21:18:53;;;;;;;17.02;4.00;;;22.30;99.90;;;;;;5012901;28;20559;-66
2022/02/10 21:21:21;;;;;;;15.30;3.33;;;22.40;99.90;;;;;;5007778;28;20069;-66
2022/02/10 21:23:59;;;;;;;11.48;2.17;;;22.40;99.90;;;;;;5015008;28;20037;-66
2022/02/10 21:26:32;;;;;;;11.50;2.67;;;22.50;99.90;;;;;;5006925;28;20027;-66
2022/02/10 21:29:03;;;;;;;14.02;2.70;;;22.60;99.90;;;;;;5008257;28;20022;-66
2022/02/10 21:31:31;;;;;;;8.95;2.20;;;22.70;99.90;;;;;;5010944;28;20104;-66
2022/02/10 21:34:09;;;;;;;14.52;3.17;;;22.70;99.90;;;;;;5010339;28;20046;-66
2022/02/10 21:45:35;;;;;;;11.75;2.35;;;22.60;99.90;;;;;;5005429;28;20037;-65
2022/02/10 21:47:46;;;;;;;10.07;2.53;;;22.70;99.90;;;;;;4993032;28;20027;-66
2022/02/10 22:18:10;;;;;;;12.18;2.28;;;23.70;99.90;;;;;;5021213;28;20129;-66
2022/02/10 22:20:30;;;;;;;14.73;3.80;;;23.50;99.90;;;;;;5013647;28;20028;-66
2022/02/10 22:23:07;;;;;;;11.32;2.33;;;23.30;99.90;;;;;;5012109;28;20857;-66
2022/02/10 22:25:35;;;;;;;11.05;2.40;;;23.20;99.90;;;;;;5008884;28;20034;-67
2022/02/10 22:28:13;;;;;;;10.55;2.15;;;23.00;99.90;;;;;;5015082;28;20443;-66
2022/02/10 22:30:51;;;;;;;10.73;2.67;;;23.00;99.90;;;;;;5010884;28;20092;-67
2022/02/10 22:33:39;;;;;;;8.23;2.10;;;22.80;99.90;;;;;;5008973;28;20121;-67
2022/02/10 22:36:09;;;;;;;17.45;3.47;;;22.70;99.90;;;;;;5001203;28;20077;-67
2022/02/10 22:38:37;;;;;;;15.10;3.80;;;22.40;99.90;;;;;;5012158;28;20103;-67
2022/02/10 22:41:10;;;;;;;12.63;3.35;;;22.30;99.90;;;;;;5015419;28;20034;-67
2022/02/10 22:43:46;;;;;;;14.40;4.43;;;22.10;99.90;;;;;;5015010;28;20025;-67
2022/02/10 22:46:15;;;;;;;19.38;4.32;;;22.00;99.90;;;;;;5012478;28;20374;-67
2022/02/10 22:48:44;;;;;;;14.68;3.63;;;21.80;99.90;;;;;;5010597;28;20026;-67
2022/02/10 22:51:18;;;;;;;20.42;4.88;;;21.60;99.90;;;;;;5011870;28;20029;-66
2022/02/10 22:53:45;;;;;;;14.73;4.53;;;21.50;99.90;;;;;;5009007;28;20520;-67
2022/02/10 22:56:15;;;;;;;18.50;4.95;;;21.40;99.90;;;;;;5009816;28;20032;-67
2022/02/10 22:58:43;;;;;;;14.55;4.47;;;21.60;99.90;;;;;;5010615;28;20053;-67
2022/02/10 23:01:12;;;;;;;26.10;4.95;;;21.70;99.90;;;;;;5012601;28;20169;-67
2022/02/10 23:03:41;;;;;;;19.10;4.68;;;22.00;99.90;;;;;;5011324;28;20654;-66
2022/02/10 23:06:14;;;;;;;21.65;4.68;;;22.30;99.90;;;;;;5019526;28;20493;-67
2022/02/10 23:08:47;;;;;;;21.70;5.00;;;22.60;99.90;;;;;;5029448;28;20096;-67
2022/02/10 23:11:24;;;;;;;21.80;3.78;;;22.80;99.90;;;;;;5015042;28;20034;-67
2022/02/10 23:13:52;;;;;;;18.20;2.70;;;22.80;99.90;;;;;;5017778;28;20030;-67
2022/02/10 23:16:19;;;;;;;11.15;2.00;;;22.80;99.90;;;;;;5014234;28;20076;-67
2022/02/10 23:18:47;;;;;;;11.85;2.40;;;22.80;99.90;;;;;;5014719;28;20034;-67
2022/02/10 23:21:21;;;;;;;10.25;2.13;;;22.90;99.90;;;;;;5014206;28;20497;-66
2022/02/10 23:23:49;;;;;;;;;;;23.00;99.90;;;;;;5013662;28;20033;-67
2022/02/10 23:26:21;;;;;;;13.68;2.65;;;23.00;99.90;;;;;;5015472;28;20430;-66
2022/02/10 23:28:56;;;;;;;15.32;3.22;;;23.20;99.90;;;;;;5012697;28;20100;-67
2022/02/10 23:31:28;;;;;;;12.88;3.85;;;23.20;99.90;;;;;;5012801;28;20045;-67
2022/02/10 23:33:59;;;;;;;17.90;4.15;;;23.00;99.90;;;;;;5011932;28;20048;-66
2022/02/10 23:36:46;;;;;;;16.52;4.18;;;22.70;99.90;;;;;;5019523;28;20462;-66
2022/02/10 23:39:29;;;;;;;18.00;4.15;;;22.40;99.90;;;;;;5022395;28;20036;-66
2022/02/10 23:42:09;;;;;;;17.23;4.00;;;22.30;99.90;;;;;;5015248;28;20026;-66
2022/02/10 23:44:45;;;;;;;15.13;4.45;;;22.20;99.90;;;;;;5014705;28;20125;-67
2022/02/10 23:47:18;;;;;;;15.32;4.85;;;22.10;99.90;;;;;;5005036;28;20038;-66
2022/02/10 23:49:50;;;;;;;14.05;4.28;;;22.00;99.90;;;;;;5034116;28;20046;-66
2022/02/10 23:52:21;;;;;;;14.00;4.65;;;21.90;99.90;;;;;;5040423;28;20044;-66
2022/02/10 23:54:54;;;;;;;18.85;5.68;;;21.70;99.90;;;;;;5032508;28;20018;-66
2022/02/10 23:57:45;;;;;;;13.68;4.15;;;21.60;99.90;;;;;;5031122;28;20069;-64
